Time;durP1;ratioP1;P1;durP2;ratioP2;P2;SDS_P1;SDS_P2;PMS_P1;PMS_P2;Temp;Humidity;BMP_temperature;BMP_pressure;BME280_temperature;BME280_humidity;BME280_pressure;Samples;Min_cycle;Max_cycle;Signal;HPM_P1;HPM_P2
2021/03/21 00:02:25;;;;;;;3.10;2.40;;;4.10;69.00;;;;;;4994412;28;20027;-84
2021/03/21 00:04:51;;;;;;;3.83;2.47;;;4.10;68.20;;;;;;4996493;28;20073;-84
2021/03/21 00:07:17;;;;;;;4.07;2.40;;;4.20;68.00;;;;;;4995721;28;20133;-86
2021/03/21 00:09:42;;;;;;;4.28;2.05;;;4.20;68.00;;;;;;4990603;28;20039;-85
2021/03/21 00:12:08;;;;;;;2.88;2.13;;;4.30;67.70;;;;;;5061396;28;20043;-85
2021/03/21 00:14:34;;;;;;;4.50;2.10;;;4.30;67.60;;;;;;4984777;28;20039;-84
2021/03/21 00:17:00;;;;;;;5.45;3.13;;;4.30;67.80;;;;;;5045229;28;20471;-85
2021/03/21 00:19:26;;;;;;;4.38;2.53;;;4.30;68.60;;;;;;4956754;28;20131;-86
2021/03/21 00:21:52;;;;;;;6.03;2.20;;;4.30;68.40;;;;;;4940566;29;20042;-85
2021/03/21 00:24:17;;;;;;;5.28;2.58;;;4.30;67.90;;;;;;4973257;28;20301;-85
2021/03/21 00:26:43;;;;;;;8.70;2.88;;;4.40;67.50;;;;;;5059070;28;20034;-85
2021/03/21 00:29:08;;;;;;;3.38;1.85;;;4.40;68.50;;;;;;4980483;28;20034;-85
2021/03/21 00:31:34;;;;;;;2.88;2.00;;;4.40;67.20;;;;;;4978137;28;20042;-86
2021/03/21 00:34:00;;;;;;;3.72;1.90;;;4.30;67.10;;;;;;4995403;28;20600;-84
2021/03/21 00:36:25;;;;;;;3.10;2.45;;;4.30;67.40;;;;;;4959934;28;20049;-84
2021/03/21 00:38:53;;;;;;;4.25;2.45;;;4.30;67.30;;;;;;4995097;28;20133;-85
2021/03/21 00:41:22;;;;;;;3.88;2.72;;;4.30;67.10;;;;;;4994079;28;20109;-84
2021/03/21 00:43:47;;;;;;;2.80;1.95;;;4.30;67.30;;;;;;4975165;28;20030;-84
2021/03/21 00:46:13;;;;;;;3.03;2.17;;;4.30;67.30;;;;;;4977272;28;20045;-85
2021/03/21 00:48:42;;;;;;;2.65;2.05;;;4.40;67.40;;;;;;4989080;28;20034;-84
2021/03/21 00:51:08;;;;;;;4.53;2.67;;;4.40;67.80;;;;;;4961621;28;20046;-84
2021/03/21 00:53:34;;;;;;;3.75;2.83;;;4.40;67.80;;;;;;4978340;28;20095;-85
2021/03/21 00:56:00;;;;;;;4.82;2.28;;;4.40;68.00;;;;;;4968729;28;20363;-84
2021/03/21 00:58:25;;;;;;;6.30;1.92;;;4.30;68.00;;;;;;4975567;28;20092;-83
2021/03/21 01:00:58;;;;;;;2.90;1.90;;;4.30;67.30;;;;;;4966126;28;20039;-85
2021/03/21 01:03:24;;;;;;;4.80;2.53;;;4.30;67.20;;;;;;4959600;28;20049;-85
2021/03/21 01:05:55;;;;;;;4.75;2.47;;;4.40;67.90;;;;;;4958708;28;20121;-84
2021/03/21 01:08:29;;;;;;;2.90;2.53;;;4.40;68.10;;;;;;4958776;28;20069;-84
2021/03/21 01:10:58;;;;;;;3.42;2.20;;;4.40;67.10;;;;;;4992914;28;20440;-84
2021/03/21 01:13:24;;;;;;;2.97;2.35;;;4.40;67.40;;;;;;4972812;28;20708;-85
2021/03/21 01:15:50;;;;;;;2.67;1.75;;;4.40;66.70;;;;;;4966811;28;20042;-85
2021/03/21 01:18:23;;;;;;;3.22;2.28;;;4.40;67.50;;;;;;4958029;28;20139;-85
2021/03/21 01:20:49;;;;;;;3.17;1.90;;;4.50;67.70;;;;;;4958697;28;20129;-85
2021/03/21 01:23:15;;;;;;;3.05;2.28;;;4.50;68.10;;;;;;5003265;28;20118;-84
2021/03/21 01:25:41;;;;;;;3.08;2.22;;;4.50;68.10;;;;;;5035257;28;20043;-85
2021/03/21 01:28:26;;;;;;;2.90;2.20;;;4.50;68.40;;;;;;4994696;28;20034;-85
2021/03/21 01:30:54;;;;;;;5.35;2.05;;;4.60;67.80;;;;;;4947340;28;20435;-84
2021/03/21 01:33:21;;;;;;;3.78;2.13;;;4.60;68.20;;;;;;4975714;28;20050;-84
2021/03/21 01:35:48;;;;;;;4.35;2.50;;;4.60;67.70;;;;;;4991821;28;20073;-84
2021/03/21 01:38:14;;;;;;;3.75;2.60;;;4.60;68.20;;;;;;4976214;28;20136;-85
2021/03/21 01:40:40;;;;;;;4.25;2.45;;;4.70;68.00;;;;;;4994538;28;20130;-84
2021/03/21 01:43:05;;;;;;;3.72;1.92;;;4.70;68.40;;;;;;4994707;28;20045;-84
2021/03/21 01:45:44;;;;;;;8.68;2.58;;;4.60;68.60;;;;;;4973689;28;20038;-84
2021/03/21 01:48:47;;;;;;;4.13;2.28;;;4.60;69.30;;;;;;4994402;28;20038;-84
2021/03/21 01:51:18;;;;;;;4.30;2.72;;;4.70;69.20;;;;;;4991486;28;20099;-84
2021/03/21 01:53:46;;;;;;;5.20;2.55;;;4.60;68.70;;;;;;5066944;28;20044;-84
2021/03/21 01:56:13;;;;;;;3.35;2.50;;;4.70;68.90;;;;;;4974080;28;20049;-84
2021/03/21 01:58:42;;;;;;;4.47;2.85;;;4.70;68.30;;;;;;4958084;28;20053;-84
2021/03/21 02:01:19;;;;;;;4.20;2.42;;;4.80;69.00;;;;;;4966651;28;20122;-85
2021/03/21 02:03:45;;;;;;;4.35;2.40;;;4.80;68.50;;;;;;4994294;28;20035;-85
2021/03/21 02:06:35;;;;;;;3.35;2.83;;;4.80;68.70;;;;;;4964236;28;20397;-84
2021/03/21 02:09:03;;;;;;;3.10;2.47;;;4.70;68.70;;;;;;4983178;28;20408;-86
2021/03/21 02:11:43;;;;;;;3.55;2.67;;;4.70;68.90;;;;;;4994147;28;20320;-85
2021/03/21 02:14:46;;;;;;;3.20;2.50;;;4.70;69.90;;;;;;4993132;28;20053;-84
2021/03/21 02:17:23;;;;;;;4.65;2.35;;;4.70;69.10;;;;;;4986675;28;20050;-85
2021/03/21 02:20:18;;;;;;;3.75;2.08;;;4.80;68.80;;;;;;5069308;28;20046;-85
2021/03/21 02:23:05;;;;;;;3.92;2.30;;;4.80;68.80;;;;;;5058674;28;20121;-85
2021/03/21 02:25:48;;;;;;;4.28;2.40;;;4.80;69.10;;;;;;4982451;28;20034;-86
2021/03/21 02:28:38;;;;;;;3.58;2.63;;;4.80;69.40;;;;;;4974967;28;20450;-84
2021/03/21 02:31:14;;;;;;;5.72;3.45;;;4.80;70.10;;;;;;4964376;28;20388;-84
2021/03/21 02:33:52;;;;;;;4.65;2.80;;;4.80;70.00;;;;;;4974415;28;20049;-85
2021/03/21 02:36:41;;;;;;;4.80;3.03;;;4.80;70.40;;;;;;5032353;28;20033;-85
2021/03/21 02:39:21;;;;;;;3.22;2.30;;;4.80;70.00;;;;;;4944559;29;20108;-85
2021/03/21 02:41:56;;;;;;;5.18;3.08;;;4.80;69.90;;;;;;5042455;28;20046;-85
2021/03/21 02:44:26;;;;;;;3.63;2.28;;;4.80;70.20;;;;;;4981249;28;20045;-85
2021/03/21 02:47:01;;;;;;;3.30;2.35;;;4.80;70.50;;;;;;4974102;28;20066;-85
2021/03/21 02:49:31;;;;;;;3.42;2.60;;;4.80;70.20;;;;;;4960468;28;20050;-85
2021/03/21 02:52:06;;;;;;;4.53;2.80;;;4.80;70.50;;;;;;4971063;28;20038;-85
2021/03/21 02:55:04;;;;;;;3.33;2.78;;;4.80;70.40;;;;;;4976415;28;20117;-85
2021/03/21 02:57:42;;;;;;;4.72;3.00;;;4.70;71.20;;;;;;4930030;28;20059;-85
2021/03/21 03:00:09;;;;;;;3.15;2.75;;;4.80;70.80;;;;;;4939707;28;20129;-85
2021/03/21 03:02:38;;;;;;;3.70;2.67;;;4.70;71.40;;;;;;4957373;28;20038;-84
2021/03/21 03:05:19;;;;;;;4.50;2.85;;;4.70;71.90;;;;;;5074920;28;20033;-85
2021/03/21 03:08:13;;;;;;;4.65;2.78;;;4.80;72.10;;;;;;5000242;28;20124;-85
2021/03/21 03:10:52;;;;;;;4.28;3.10;;;4.80;72.10;;;;;;4975160;28;20039;-85
2021/03/21 03:13:24;;;;;;;5.38;3.30;;;4.80;72.20;;;;;;4974209;28;20143;-84
2021/03/21 03:15:54;;;;;;;7.82;3.10;;;4.80;72.50;;;;;;4975960;28;20034;-84
2021/03/21 03:18:37;;;;;;;4.60;3.28;;;4.80;72.90;;;;;;5062475;28;20040;-84
2021/03/21 03:21:20;;;;;;;4.95;2.80;;;4.80;73.80;;;;;;4981559;28;20176;-84
2021/03/21 03:24:06;;;;;;;;;;;4.80;74.00;;;;;;4977807;28;20034;-84
2021/03/21 03:26:53;;;;;;;5.00;3.20;;;4.80;73.80;;;;;;4980694;28;19955;-83
2021/03/21 03:29:23;;;;;;;6.43;3.55;;;4.70;74.80;;;;;;4989369;28;20617;-85
2021/03/21 03:31:54;;;;;;;5.25;3.38;;;4.60;75.30;;;;;;4989574;28;20034;-84
2021/03/21 03:34:20;;;;;;;4.93;3.25;;;4.60;76.10;;;;;;4960745;28;20035;-85
2021/03/21 03:36:45;;;;;;;5.88;3.38;;;4.60;76.10;;;;;;4977253;28;20045;-84
2021/03/21 03:39:11;;;;;;;5.18;3.20;;;4.70;75.90;;;;;;4979446;28;20410;-84
2021/03/21 03:41:39;;;;;;;5.03;3.60;;;4.70;75.90;;;;;;4979810;28;20039;-83
2021/03/21 03:44:18;;;;;;;5.68;4.05;;;4.70;76.50;;;;;;4995639;28;20038;-84
2021/03/21 03:47:01;;;;;;;8.65;3.90;;;4.70;77.00;;;;;;5006166;28;20038;-84
2021/03/21 03:49:52;;;;;;;4.47;3.72;;;4.80;77.60;;;;;;4957594;28;20066;-84
2021/03/21 03:52:53;;;;;;;6.40;4.43;;;4.70;78.00;;;;;;4959148;28;20035;-85
2021/03/21 03:55:36;;;;;;;6.03;2.95;;;4.80;77.80;;;;;;4976883;28;20046;-84
2021/03/21 03:58:07;;;;;;;6.10;4.45;;;4.90;77.90;;;;;;4995112;28;20046;-85
2021/03/21 04:00:44;;;;;;;7.40;4.07;;;4.80;78.60;;;;;;5001787;28;20035;-85
2021/03/21 04:03:42;;;;;;;7.47;4.05;;;4.80;79.00;;;;;;4976350;28;20093;-85
2021/03/21 04:06:43;;;;;;;6.82;4.43;;;4.90;79.10;;;;;;4957746;28;20067;-84
2021/03/21 04:09:16;;;;;;;7.47;4.70;;;4.90;79.30;;;;;;4957254;28;20461;-85
2021/03/21 04:11:50;;;;;;;6.45;4.80;;;4.90;79.20;;;;;;4940624;28;20070;-84
2021/03/21 04:14:24;;;;;;;7.03;4.60;;;5.00;79.70;;;;;;4964511;28;20039;-85
2021/03/21 04:17:00;;;;;;;5.88;4.20;;;5.00;80.10;;;;;;4960134;28;20046;-84
2021/03/21 04:19:30;;;;;;;6.32;4.40;;;5.00;80.10;;;;;;4995193;28;20034;-84
2021/03/21 04:22:03;;;;;;;11.40;5.47;;;5.10;80.30;;;;;;4994443;28;20041;-86
2021/03/21 04:24:36;;;;;;;8.00;5.57;;;5.00;80.30;;;;;;4996016;28;20073;-84
2021/03/21 04:27:16;;;;;;;6.22;4.38;;;5.00;80.70;;;;;;4971939;28;20046;-85
2021/03/21 04:29:52;;;;;;;7.15;4.47;;;5.00;81.50;;;;;;4970668;28;20381;-85
2021/03/21 04:32:53;;;;;;;7.55;5.13;;;5.10;81.30;;;;;;4976713;28;20308;-85
2021/03/21 04:35:34;;;;;;;5.55;4.32;;;5.10;81.80;;;;;;4970804;28;20154;-85
2021/03/21 04:38:10;;;;;;;8.43;5.55;;;5.10;82.00;;;;;;4972961;28;20042;-84
2021/03/21 04:40:36;;;;;;;9.45;5.25;;;5.10;82.30;;;;;;4978750;28;20037;-85
2021/03/21 04:43:25;;;;;;;9.45;6.45;;;5.10;82.40;;;;;;4979171;28;20038;-85
2021/03/21 04:45:54;;;;;;;9.00;6.07;;;5.10;82.70;;;;;;4995433;28;20053;-85
2021/03/21 04:48:23;;;;;;;8.25;6.18;;;5.10;82.80;;;;;;4978479;28;20052;-85
2021/03/21 04:51:02;;;;;;;9.95;6.43;;;5.10;83.10;;;;;;4978053;28;20289;-85
2021/03/21 04:53:48;;;;;;;8.35;6.10;;;5.10;83.30;;;;;;4978162;28;20316;-85
2021/03/21 04:56:38;;;;;;;7.70;6.28;;;5.20;83.10;;;;;;4995088;28;20038;-85
2021/03/21 04:59:17;;;;;;;8.85;6.25;;;5.20;83.60;;;;;;4995349;28;20045;-85
2021/03/21 05:01:54;;;;;;;9.50;6.10;;;5.30;84.30;;;;;;4995182;28;20030;-85
2021/03/21 05:04:25;;;;;;;8.30;5.75;;;5.20;84.70;;;;;;4992312;28;20034;-85
2021/03/21 05:07:06;;;;;;;9.00;6.00;;;5.20;86.20;;;;;;4975781;28;20042;-85
2021/03/21 05:09:37;;;;;;;8.73;6.20;;;5.10;87.90;;;;;;4974777;28;20038;-85
2021/03/21 05:12:14;;;;;;;11.40;6.88;;;5.10;88.40;;;;;;4959383;28;20046;-85
2021/03/21 05:14:48;;;;;;;9.50;6.53;;;5.10;88.80;;;;;;4988118;28;20043;-85
2021/03/21 05:17:28;;;;;;;8.27;6.40;;;5.10;88.90;;;;;;4968767;28;20054;-85
2021/03/21 05:20:15;;;;;;;9.10;6.40;;;5.10;88.70;;;;;;4945787;28;20035;-85
2021/03/21 05:23:02;;;;;;;9.32;6.75;;;5.10;89.10;;;;;;4991780;28;20038;-85
2021/03/21 05:25:51;;;;;;;9.88;6.90;;;5.10;89.00;;;;;;5012632;28;20308;-84
2021/03/21 05:28:41;;;;;;;11.40;6.90;;;5.10;89.40;;;;;;4970774;28;20042;-85
2021/03/21 05:31:06;;;;;;;10.35;7.30;;;5.00;89.30;;;;;;4969690;28;20474;-83
2021/03/21 05:33:32;;;;;;;12.73;6.72;;;5.00;89.20;;;;;;4976953;28;20055;-84
2021/03/21 05:36:06;;;;;;;9.02;7.20;;;5.00;89.00;;;;;;4970755;28;20050;-84
2021/03/21 05:38:46;;;;;;;8.93;6.53;;;5.00;89.30;;;;;;4987328;28;20035;-85
2021/03/21 05:41:29;;;;;;;9.50;6.25;;;5.10;89.10;;;;;;5051524;28;20045;-85
2021/03/21 05:44:16;;;;;;;8.73;6.93;;;5.00;89.20;;;;;;4981006;28;20547;-85
2021/03/21 05:47:23;;;;;;;9.95;6.85;;;5.00;89.50;;;;;;4973119;28;20031;-85
2021/03/21 05:50:04;;;;;;;9.40;6.75;;;5.00;90.10;;;;;;5020796;28;20125;-84
2021/03/21 05:52:35;;;;;;;13.68;7.45;;;5.00;90.00;;;;;;4953750;28;20163;-85
2021/03/21 05:55:48;;;;;;;8.63;6.57;;;5.10;90.50;;;;;;4983499;28;20095;-86
2021/03/21 05:58:39;;;;;;;7.93;5.30;;;5.10;90.90;;;;;;4986007;28;20051;-86
2021/03/21 06:01:13;;;;;;;11.18;7.65;;;5.00;91.10;;;;;;5057684;28;20046;-85
2021/03/21 06:04:00;;;;;;;12.65;6.97;;;5.00;91.20;;;;;;4971163;28;20038;-85
2021/03/21 06:07:01;;;;;;;10.40;6.80;;;5.00;91.70;;;;;;4972202;28;20412;-85
2021/03/21 06:10:01;;;;;;;11.65;8.73;;;5.10;92.10;;;;;;4973857;28;20530;-85
2021/03/21 06:12:36;;;;;;;9.27;6.38;;;5.00;92.30;;;;;;5058625;28;20035;-85
2021/03/21 06:15:33;;;;;;;10.18;7.47;;;5.10;92.40;;;;;;4986779;28;20386;-85
2021/03/21 06:18:21;;;;;;;10.45;7.70;;;5.00;92.70;;;;;;4997370;28;20099;-85
2021/03/21 06:21:24;;;;;;;11.32;6.78;;;5.00;93.00;;;;;;4981554;28;20043;-82
2021/03/21 06:24:05;;;;;;;;;;;5.00;92.90;;;;;;5012638;28;20043;-85
2021/03/21 06:26:48;;;;;;;9.38;6.40;;;4.90;93.20;;;;;;5074582;28;19919;-84
2021/03/21 06:29:30;;;;;;;11.68;8.45;;;5.00;93.20;;;;;;5076329;28;20040;-85
2021/03/21 06:32:37;;;;;;;13.27;8.30;;;5.00;93.40;;;;;;5070209;28;20077;-85
2021/03/21 06:35:24;;;;;;;12.05;7.88;;;5.10;93.00;;;;;;5018105;28;20044;-85
2021/03/21 06:38:09;;;;;;;20.58;8.45;;;5.10;93.10;;;;;;5059624;28;20040;-86
2021/03/21 06:41:05;;;;;;;12.45;6.95;;;5.20;93.10;;;;;;5085373;28;20473;-84
2021/03/21 06:44:09;;;;;;;11.13;8.00;;;5.20;93.30;;;;;;5055729;28;20048;-85
2021/03/21 06:46:53;;;;;;;9.98;7.13;;;5.20;93.30;;;;;;5073036;28;20036;-84
2021/03/21 06:49:40;;;;;;;14.07;7.95;;;5.30;93.40;;;;;;5072313;28;20101;-84
2021/03/21 06:52:25;;;;;;;14.45;8.98;;;5.30;93.60;;;;;;5039366;28;20105;-84
2021/03/21 06:54:56;;;;;;;9.90;6.97;;;5.40;93.60;;;;;;5065151;28;20076;-83
2021/03/21 06:57:56;;;;;;;10.73;8.25;;;5.40;94.10;;;;;;5059632;28;20053;-84
2021/03/21 07:00:48;;;;;;;11.38;7.28;;;5.50;93.70;;;;;;5057798;28;20032;-85
2021/03/21 07:03:52;;;;;;;12.88;8.55;;;5.50;93.60;;;;;;5079891;28;20406;-85
2021/03/21 07:06:42;;;;;;;12.15;7.80;;;5.50;93.90;;;;;;5068983;28;20178;-84
2021/03/21 07:10:01;;;;;;;13.13;7.32;;;5.40;94.10;;;;;;5084595;28;20256;-85
2021/03/21 07:12:48;;;;;;;14.13;7.57;;;5.50;94.20;;;;;;5076084;28;20037;-84
2021/03/21 07:15:53;;;;;;;12.18;8.10;;;5.50;94.00;;;;;;5052693;28;20144;-85
2021/03/21 07:18:56;;;;;;;12.40;8.45;;;5.50;93.90;;;;;;5059627;28;20386;-84
2021/03/21 07:21:59;;;;;;;12.15;7.60;;;5.50;93.90;;;;;;5047489;28;20094;-84
2021/03/21 07:24:53;;;;;;;10.65;7.57;;;5.50;94.00;;;;;;5056725;28;20036;-85
2021/03/21 07:27:35;;;;;;;12.43;7.28;;;5.50;94.00;;;;;;5061404;28;20050;-85
2021/03/21 07:30:09;;;;;;;11.48;8.20;;;5.50;94.30;;;;;;5048968;28;20039;-84
2021/03/21 07:32:59;;;;;;;10.90;8.27;;;5.60;94.40;;;;;;4986266;28;20046;-85
2021/03/21 07:35:55;;;;;;;12.45;8.70;;;5.60;94.40;;;;;;5004031;28;20322;-85
2021/03/21 07:38:44;;;;;;;13.23;7.65;;;5.70;94.40;;;;;;4995185;28;20050;-84
2021/03/21 07:41:40;;;;;;;10.82;7.30;;;5.70;94.50;;;;;;4964422;28;20402;-85
2021/03/21 07:44:24;;;;;;;10.80;6.38;;;5.70;94.40;;;;;;4960399;28;20042;-84
2021/03/21 07:46:52;;;;;;;9.60;7.05;;;5.80;94.40;;;;;;4977622;28;20339;-84
2021/03/21 07:49:39;;;;;;;8.98;6.85;;;5.80;94.70;;;;;;4996457;28;20070;-84
2021/03/21 07:52:42;;;;;;;9.63;7.25;;;5.90;94.00;;;;;;5055321;28;20286;-85
2021/03/21 07:55:32;;;;;;;8.95;7.22;;;6.00;94.10;;;;;;4964212;28;20043;-84
2021/03/21 07:58:22;;;;;;;10.93;7.15;;;6.10;94.00;;;;;;4982684;28;20147;-84
2021/03/21 08:00:48;;;;;;;10.27;6.93;;;6.10;93.80;;;;;;4967370;28;20114;-85
2021/03/21 08:03:26;;;;;;;11.13;7.47;;;6.10;93.70;;;;;;4988424;28;20039;-85
2021/03/21 08:05:54;;;;;;;10.13;7.45;;;6.10;93.50;;;;;;4960350;28;20036;-84
2021/03/21 08:08:24;;;;;;;9.93;7.00;;;6.20;93.50;;;;;;4978383;28;20100;-83
2021/03/21 08:10:53;;;;;;;8.75;6.32;;;6.20;93.50;;;;;;4972096;28;20034;-85
2021/03/21 08:13:30;;;;;;;9.55;7.05;;;6.20;93.60;;;;;;4977722;28;20126;-84
2021/03/21 08:15:55;;;;;;;8.70;5.97;;;6.20;93.50;;;;;;4964564;28;20393;-84
2021/03/21 08:18:34;;;;;;;9.38;6.63;;;6.30;93.60;;;;;;4975756;28;20038;-84
2021/03/21 08:21:06;;;;;;;11.48;7.07;;;6.30;93.60;;;;;;4977719;28;20042;-84
2021/03/21 08:23:35;;;;;;;10.68;7.40;;;6.10;94.00;;;;;;4979557;28;20034;-85
2021/03/21 08:26:06;;;;;;;15.27;13.57;;;6.20;94.20;;;;;;4986366;28;20673;-85
2021/03/21 08:28:36;;;;;;;12.00;8.05;;;6.20;94.50;;;;;;5063086;28;20304;-84
2021/03/21 08:31:08;;;;;;;9.80;7.00;;;6.30;94.40;;;;;;4960294;28;20074;-84
2021/03/21 08:33:43;;;;;;;11.83;7.47;;;6.30;94.40;;;;;;4977813;28;20157;-85
2021/03/21 08:36:21;;;;;;;12.20;8.75;;;6.40;94.50;;;;;;4988313;28;20582;-85
2021/03/21 08:39:12;;;;;;;10.18;7.40;;;6.50;94.10;;;;;;4961412;28;20055;-85
2021/03/21 08:41:54;;;;;;;10.30;7.57;;;6.50;94.40;;;;;;4967496;28;20144;-85
2021/03/21 08:44:49;;;;;;;9.40;5.65;;;6.60;93.90;;;;;;5023609;28;20653;-85
2021/03/21 08:47:21;;;;;;;7.28;5.22;;;6.70;93.70;;;;;;4969337;28;20462;-85
2021/03/21 08:49:50;;;;;;;6.03;4.78;;;6.80;93.10;;;;;;5031628;28;20046;-84
2021/03/21 08:52:39;;;;;;;5.65;3.92;;;6.90;93.20;;;;;;4996219;28;20115;-84
2021/03/21 08:55:05;;;;;;;6.30;5.20;;;7.00;92.70;;;;;;4994156;28;20030;-86
2021/03/21 08:57:34;;;;;;;5.10;4.00;;;7.00;93.10;;;;;;4989158;28;20073;-87
2021/03/21 09:00:21;;;;;;;12.35;5.95;;;7.00;92.90;;;;;;4988992;28;20096;-85
2021/03/21 09:02:47;;;;;;;4.90;3.75;;;7.00;93.20;;;;;;4965265;28;20046;-86
2021/03/21 09:05:15;;;;;;;6.38;4.25;;;7.10;93.10;;;;;;4958361;28;20039;-85
2021/03/21 09:08:07;;;;;;;4.88;4.10;;;7.20;93.00;;;;;;4975284;28;20042;-84
2021/03/21 09:10:49;;;;;;;6.90;4.13;;;7.20;92.70;;;;;;4974580;28;20274;-86
2021/03/21 09:13:21;;;;;;;4.20;3.78;;;7.20;93.00;;;;;;4958293;28;20057;-86
2021/03/21 09:15:53;;;;;;;;;;;7.20;93.00;;;;;;4957920;28;20046;-87
2021/03/21 09:18:19;;;;;;;5.30;3.88;;;7.20;92.70;;;;;;5059244;28;19922;-87
2021/03/21 09:20:52;;;;;;;3.92;3.28;;;7.20;92.80;;;;;;5057820;28;20099;-87
2021/03/21 09:23:30;;;;;;;5.10;4.13;;;7.20;93.10;;;;;;5059030;28;20297;-86
2021/03/21 09:25:57;;;;;;;4.20;3.45;;;7.20;92.70;;;;;;5059178;28;20432;-86
2021/03/21 09:28:25;;;;;;;3.13;2.72;;;7.20;92.90;;;;;;4975529;28;20070;-86
2021/03/21 09:30:52;;;;;;;3.60;3.28;;;7.30;92.70;;;;;;4959218;28;20585;-86
2021/03/21 09:33:25;;;;;;;4.60;3.03;;;7.30;92.60;;;;;;4975879;28;20046;-86
2021/03/21 09:36:20;;;;;;;3.58;2.60;;;7.40;92.70;;;;;;4975623;28;20062;-87
2021/03/21 09:38:55;;;;;;;2.28;2.03;;;7.50;92.50;;;;;;4956900;28;20050;-86
2021/03/21 09:41:21;;;;;;;1.80;1.50;;;7.60;91.20;;;;;;4975940;28;20047;-86
2021/03/21 09:43:48;;;;;;;2.33;1.10;;;7.60;90.00;;;;;;4958491;28;20045;-87
2021/03/21 09:46:29;;;;;;;7.85;6.45;;;7.60;89.10;;;;;;4986438;28;20038;-86
2021/03/21 09:49:28;;;;;;;4.10;1.60;;;7.60;88.70;;;;;;4975528;28;20046;-87
2021/03/21 09:52:13;;;;;;;1.80;1.48;;;7.60;88.40;;;;;;4977716;28;20034;-86
2021/03/21 09:54:51;;;;;;;1.88;1.10;;;7.70;87.90;;;;;;4972529;28;20049;-85
2021/03/21 09:57:47;;;;;;;3.08;1.75;;;7.80;86.30;;;;;;4975261;28;20290;-86
2021/03/21 10:00:25;;;;;;;1.67;1.40;;;7.90;85.80;;;;;;4958580;28;20039;-87
2021/03/21 10:03:01;;;;;;;2.08;1.05;;;8.00;85.90;;;;;;4975273;28;20352;-86
2021/03/21 10:05:58;;;;;;;6.13;1.30;;;7.90;85.60;;;;;;4958347;28;20371;-86
2021/03/21 10:08:52;;;;;;;2.13;0.90;;;7.90;81.70;;;;;;4979113;28;20074;-86
2021/03/21 10:11:29;;;;;;;2.45;1.58;;;7.80;81.60;;;;;;4975275;28;20407;-87
2021/03/21 10:13:55;;;;;;;3.78;1.13;;;7.70;82.00;;;;;;4974832;28;20058;-87
2021/03/21 10:16:27;;;;;;;1.70;1.40;;;7.70;82.20;;;;;;5039974;28;20051;-87
2021/03/21 10:19:02;;;;;;;6.20;1.63;;;7.80;82.20;;;;;;5058722;28;20197;-87
2021/03/21 10:21:30;;;;;;;5.10;1.38;;;7.80;82.90;;;;;;5076578;28;20278;-86
2021/03/21 10:23:59;;;;;;;7.38;2.78;;;7.70;81.60;;;;;;5058656;28;20125;-87
2021/03/21 10:26:31;;;;;;;8.27;1.73;;;7.70;82.20;;;;;;5076539;28;20040;-86
2021/03/21 10:28:59;;;;;;;6.47;1.85;;;7.60;80.90;;;;;;5058585;28;20047;-86
2021/03/21 10:31:33;;;;;;;6.15;1.88;;;7.40;81.50;;;;;;5076275;28;20553;-86
2021/03/21 10:34:02;;;;;;;5.65;1.75;;;7.30;82.70;;;;;;5058612;28;20051;-86
2021/03/21 10:39:25;;;;;;;8.85;1.98;;;7.20;82.20;;;;;;4974612;28;20054;-86
2021/03/21 10:42:30;;;;;;;7.97;2.78;;;7.10;82.00;;;;;;4974700;28;20046;-86
2021/03/21 10:44:57;;;;;;;13.10;2.50;;;7.10;81.40;;;;;;4957352;28;20035;-86
2021/03/21 10:47:25;;;;;;;12.50;2.35;;;7.20;80.90;;;;;;4957528;28;20397;-85
2021/03/21 10:50:03;;;;;;;4.50;1.60;;;7.30;80.90;;;;;;4957458;28;20038;-87
2021/03/21 10:52:34;;;;;;;12.50;2.58;;;7.40;79.60;;;;;;4957591;28;20043;-86
2021/03/21 10:55:12;;;;;;;12.02;2.90;;;7.50;77.80;;;;;;4957648;28;20039;-84
2021/03/21 10:57:54;;;;;;;10.50;2.10;;;7.50;78.50;;;;;;4974187;28;20058;-86
2021/03/21 11:00:29;;;;;;;8.27;2.15;;;7.50;77.50;;;;;;4974461;28;20045;-85
2021/03/21 11:03:00;;;;;;;12.95;2.53;;;7.50;77.20;;;;;;4957577;28;20078;-86
2021/03/21 11:05:28;;;;;;;9.50;2.50;;;7.50;77.50;;;;;;4974219;28;20053;-86
2021/03/21 11:08:02;;;;;;;17.27;4.40;;;7.60;77.80;;;;;;4974163;28;20357;-87
2021/03/21 11:10:32;;;;;;;21.08;3.17;;;7.50;77.50;;;;;;4974384;28;20038;-87
2021/03/21 11:12:57;;;;;;;14.82;2.42;;;7.50;78.70;;;;;;4957230;28;20049;-87
2021/03/21 11:15:26;;;;;;;22.45;3.20;;;7.60;78.30;;;;;;5057715;28;20126;-87
2021/03/21 11:17:51;;;;;;;9.10;2.20;;;7.60;78.20;;;;;;4957294;28;20039;-87
2021/03/21 11:20:25;;;;;;;17.48;3.28;;;7.60;79.00;;;;;;4957182;28;20130;-86
2021/03/21 11:22:50;;;;;;;14.43;2.15;;;7.50;78.40;;;;;;4974143;28;20039;-87
2021/03/21 11:25:33;;;;;;;21.42;3.45;;;7.50;78.80;;;;;;4975580;28;20035;-86
2021/03/21 11:27:59;;;;;;;;;;;7.60;79.30;;;;;;4993590;28;20038;-87
2021/03/21 11:30:28;;;;;;;11.13;2.60;;;7.50;79.50;;;;;;4993414;28;19967;-87
2021/03/21 11:33:16;;;;;;;17.52;3.33;;;7.50;79.50;;;;;;4993020;28;20124;-87
2021/03/21 11:35:42;;;;;;;6.28;2.33;;;7.50;80.20;;;;;;4985271;28;20054;-87
2021/03/21 11:38:30;;;;;;;11.95;2.72;;;7.50;81.00;;;;;;4973452;28;20039;-87
2021/03/21 11:40:59;;;;;;;13.75;2.85;;;7.40;81.70;;;;;;4957055;28;20035;-86
2021/03/21 11:43:29;;;;;;;11.73;2.88;;;7.40;82.40;;;;;;4962052;28;20044;-86
2021/03/21 11:46:13;;;;;;;18.73;3.22;;;7.30;83.10;;;;;;4978165;28;20051;-86
2021/03/21 11:48:41;;;;;;;15.63;3.55;;;7.30;82.70;;;;;;4980564;28;20043;-87
2021/03/21 11:51:07;;;;;;;18.15;3.78;;;7.40;83.20;;;;;;4978956;28;20046;-87
2021/03/21 11:53:36;;;;;;;10.70;3.15;;;7.30;83.30;;;;;;4971374;28;20040;-87
2021/03/21 11:56:15;;;;;;;12.77;4.00;;;7.40;83.50;;;;;;4983125;28;20159;-87
2021/03/21 11:58:47;;;;;;;17.42;4.18;;;7.30;83.70;;;;;;4978623;28;20125;-87
2021/03/21 12:01:19;;;;;;;21.63;3.80;;;7.20;84.00;;;;;;4980193;28;20122;-87
2021/03/21 12:03:57;;;;;;;7.90;2.45;;;7.20;83.80;;;;;;5054786;28;20140;-87
2021/03/21 12:06:33;;;;;;;13.13;3.35;;;7.30;84.20;;;;;;4971844;28;20035;-88
2021/03/21 12:09:28;;;;;;;14.30;3.33;;;7.30;84.10;;;;;;5075823;28;20032;-87
2021/03/21 12:11:54;;;;;;;16.50;3.10;;;7.40;84.20;;;;;;5040508;28;20049;-86
2021/03/21 12:14:32;;;;;;;17.08;3.05;;;7.50;84.20;;;;;;4992646;28;20431;-86
2021/03/21 12:17:22;;;;;;;14.80;3.65;;;7.60;83.20;;;;;;4976257;28;20049;-86
2021/03/21 12:19:56;;;;;;;13.93;3.00;;;7.70;82.90;;;;;;4961695;28;20329;-85
2021/03/21 12:22:39;;;;;;;10.18;2.28;;;7.80;82.30;;;;;;4959635;28;20405;-86
2021/03/21 12:25:26;;;;;;;16.13;3.85;;;7.70;82.50;;;;;;4980970;28;20055;-87
2021/03/21 12:28:00;;;;;;;10.77;2.85;;;7.70;83.40;;;;;;4971482;28;20103;-86
2021/03/21 12:30:51;;;;;;;13.10;3.08;;;7.70;83.10;;;;;;4960328;28;20036;-88
2021/03/21 12:33:26;;;;;;;16.35;3.95;;;7.70;83.10;;;;;;4979982;28;20393;-86
2021/03/21 12:35:53;;;;;;;15.93;3.33;;;7.80;82.70;;;;;;4975561;28;20047;-86
2021/03/21 12:38:34;;;;;;;10.98;2.92;;;7.90;82.80;;;;;;4971775;28;20100;-87
2021/03/21 12:41:22;;;;;;;16.17;3.25;;;8.00;82.10;;;;;;4975241;28;20039;-86
2021/03/21 12:44:10;;;;;;;11.68;2.65;;;8.00;82.40;;;;;;4941929;28;20361;-85
2021/03/21 12:46:47;;;;;;;19.05;3.70;;;7.80;82.00;;;;;;5034914;28;20130;-87
2021/03/21 12:49:38;;;;;;;14.93;3.03;;;7.80;82.90;;;;;;4974590;28;20098;-86
2021/03/21 12:52:11;;;;;;;18.98;3.08;;;7.80;82.00;;;;;;4976137;28;20043;-86
2021/03/21 12:54:40;;;;;;;17.10;3.85;;;7.80;81.90;;;;;;4980768;28;20049;-88
2021/03/21 12:57:11;;;;;;;14.07;3.22;;;7.90;82.40;;;;;;4984709;28;20499;-87
2021/03/21 12:59:37;;;;;;;17.70;4.00;;;7.90;82.40;;;;;;4957926;28;20047;-86
2021/03/21 13:02:03;;;;;;;14.88;3.22;;;8.00;82.40;;;;;;4960307;28;20464;-86
2021/03/21 13:04:28;;;;;;;15.63;4.13;;;8.10;82.00;;;;;;4961952;28;20169;-88
2021/03/21 13:06:54;;;;;;;13.88;3.83;;;8.20;81.80;;;;;;4967006;28;20121;-86
2021/03/21 13:09:19;;;;;;;10.05;3.05;;;8.20;82.60;;;;;;4964110;28;20053;-86
2021/03/21 13:11:45;;;;;;;14.93;3.00;;;8.40;80.80;;;;;;4962680;28;20043;-87
2021/03/21 13:14:10;;;;;;;16.73;3.55;;;8.40;80.30;;;;;;4967376;28;20427;-86
2021/03/21 13:16:36;;;;;;;15.50;3.95;;;8.40;80.20;;;;;;5056752;28;20055;-87
2021/03/21 13:19:01;;;;;;;18.85;4.25;;;8.50;81.40;;;;;;5056960;28;20110;-86
2021/03/21 13:21:27;;;;;;;15.52;3.53;;;8.60;80.60;;;;;;5019798;28;20051;-87
2021/03/21 13:23:52;;;;;;;12.70;2.10;;;8.70;80.10;;;;;;4996082;28;20041;-87
2021/03/21 13:26:18;;;;;;;11.07;4.03;;;8.70;80.20;;;;;;4989670;28;20066;-86
2021/03/21 13:28:44;;;;;;;17.38;3.35;;;8.80;79.80;;;;;;5044565;28;20133;-88
2021/03/21 13:31:10;;;;;;;14.63;2.88;;;8.80;79.60;;;;;;5051396;28;20140;-87
2021/03/21 13:33:36;;;;;;;13.52;3.28;;;8.90;79.80;;;;;;4976452;28;20052;-86
2021/03/21 13:36:07;;;;;;;20.35;3.03;;;8.90;79.80;;;;;;4957037;28;20066;-88
2021/03/21 13:38:35;;;;;;;15.68;3.42;;;9.10;79.30;;;;;;4951100;28;20387;-87
2021/03/21 13:41:04;;;;;;;14.75;2.97;;;9.20;79.50;;;;;;4993109;28;20050;-86
2021/03/21 13:43:30;;;;;;;18.20;3.08;;;9.20;78.30;;;;;;4971599;28;20122;-87
2021/03/21 13:45:57;;;;;;;13.38;3.28;;;9.20;79.00;;;;;;5037531;28;20055;-87
2021/03/21 13:48:23;;;;;;;13.80;3.65;;;9.00;78.20;;;;;;4964954;28;20082;-88
2021/03/21 13:50:50;;;;;;;14.73;3.38;;;8.90;79.50;;;;;;4973365;28;20303;-85